createdAt,value
2018-05-26T00:00:29.008Z,17.50
2018-05-26T00:03:05.756Z,16.13
2018-05-26T00:05:33.447Z,16.83
2018-05-26T00:08:01.061Z,16.23
2018-05-26T00:10:28.603Z,16.40
2018-05-26T00:12:56.188Z,16.37
2018-05-26T00:15:23.931Z,16.90
2018-05-26T00:17:52.003Z,15.67
2018-05-26T00:20:20.587Z,16.57
2018-05-26T00:22:54.579Z,15.23
2018-05-26T00:25:22.221Z,15.07
2018-05-26T00:27:49.968Z,15.37
2018-05-26T00:30:17.527Z,15.87
2018-05-26T00:32:45.208Z,15.33
2018-05-26T00:35:17.168Z,15.80
2018-05-26T00:37:45.610Z,15.03
2018-05-26T00:40:13.367Z,15.27
2018-05-26T00:42:40.889Z,15.67
2018-05-26T00:45:08.437Z,14.20
2018-05-26T00:47:35.971Z,14.30
2018-05-26T00:50:03.621Z,14.20
2018-05-26T00:52:31.337Z,14.23
2018-05-26T00:54:59.520Z,14.03
2018-05-26T00:57:27.277Z,14.57
2018-05-26T00:59:54.827Z,15.03
2018-05-26T01:02:22.388Z,14.93
2018-05-26T01:04:49.936Z,14.50
2018-05-26T01:07:17.547Z,14.70
2018-05-26T01:09:45.516Z,15.63
2018-05-26T01:12:13.160Z,15.70
2018-05-26T01:14:41.008Z,14.43
2018-05-26T01:17:08.544Z,15.50
2018-05-26T01:19:36.148Z,14.50
2018-05-26T01:22:03.668Z,14.67
2018-05-26T01:24:31.230Z,14.30
2018-05-26T01:26:58.838Z,13.20
2018-05-26T01:29:26.502Z,14.10
2018-05-26T01:31:54.193Z,14.33
2018-05-26T01:34:21.775Z,15.27
2018-05-26T01:36:49.367Z,14.37
2018-05-26T01:39:16.923Z,14.47
2018-05-26T01:41:44.484Z,14.47
2018-05-26T01:44:12.134Z,14.13
2018-05-26T01:46:39.933Z,14.07
2018-05-26T01:49:07.907Z,13.90
2018-05-26T01:51:35.443Z,14.40
2018-05-26T01:54:02.981Z,14.20
2018-05-26T01:56:30.527Z,15.03
2018-05-26T01:58:58.423Z,16.63
2018-05-26T02:01:26.076Z,14.60
2018-05-26T02:03:53.770Z,15.00
2018-05-26T02:06:21.429Z,14.80
2018-05-26T02:08:48.953Z,15.20
2018-05-26T02:11:16.485Z,15.33
2018-05-26T02:13:44.005Z,15.50
2018-05-26T02:16:11.783Z,14.90
2018-05-26T02:18:39.774Z,15.67
2018-05-26T02:21:08.350Z,15.67
2018-05-26T02:23:36.075Z,16.40
2018-05-26T02:26:03.630Z,14.80
2018-05-26T02:28:31.170Z,15.87
2018-05-26T02:30:59.555Z,16.83
2018-05-26T02:33:27.196Z,16.20
2018-05-26T02:35:54.853Z,16.07
2018-05-26T02:38:22.477Z,15.07
2018-05-26T02:40:50.049Z,16.70
2018-05-26T02:43:17.858Z,17.63
2018-05-26T02:45:45.360Z,16.93
2018-05-26T02:48:12.878Z,17.67
2018-05-26T02:50:40.567Z,17.67
2018-05-26T02:53:09.267Z,18.50
2018-05-26T02:55:37.513Z,19.00
2018-05-26T02:58:06.011Z,17.53
2018-05-26T03:00:33.688Z,18.80
2018-05-26T03:03:01.231Z,16.73
2018-05-26T03:05:34.483Z,19.20
2018-05-26T03:08:07.577Z,18.80
2018-05-26T03:10:40.781Z,19.27
2018-05-26T03:13:16.064Z,20.70
2018-05-26T03:15:54.769Z,21.77
2018-05-26T03:18:22.339Z,22.27
2018-05-26T03:20:49.926Z,22.00
2018-05-26T03:23:17.454Z,23.40
2018-05-26T03:25:45.012Z,24.70
2018-05-26T03:28:12.640Z,26.03
2018-05-26T03:30:40.274Z,27.23
2018-05-26T03:33:07.960Z,28.53
2018-05-26T03:35:35.508Z,29.93
2018-05-26T03:38:03.040Z,30.00
2018-05-26T03:40:30.568Z,30.23
2018-05-26T03:42:58.131Z,31.50
2018-05-26T03:45:27.572Z,31.20
2018-05-26T03:47:55.248Z,32.00
2018-05-26T03:50:23.000Z,32.40
2018-05-26T03:52:50.663Z,32.87
2018-05-26T03:55:38.790Z,32.70
2018-05-26T03:58:18.115Z,33.17
2018-05-26T04:00:45.731Z,33.20
2018-05-26T04:03:36.642Z,32.20
2018-05-26T04:06:04.281Z,31.60
2018-05-26T04:08:32.078Z,31.57
2018-05-26T04:10:59.645Z,32.57
2018-05-26T04:13:27.132Z,33.43
2018-05-26T04:15:54.694Z,34.27
2018-05-26T04:18:22.414Z,32.37
2018-05-26T04:20:50.100Z,33.67
2018-05-26T04:23:17.741Z,34.53
2018-05-26T04:25:46.952Z,32.77
2018-05-26T04:28:14.606Z,32.27
2018-05-26T04:30:42.132Z,33.33
2018-05-26T04:33:09.723Z,33.73
2018-05-26T04:35:37.368Z,32.73
2018-05-26T04:38:06.852Z,31.77
2018-05-26T04:40:36.280Z,32.90
2018-05-26T04:43:05.067Z,30.43
2018-05-26T04:45:32.611Z,30.43
2018-05-26T04:48:00.187Z,30.47
2018-05-26T04:50:27.745Z,29.13
2018-05-26T04:52:55.405Z,27.43
2018-05-26T04:55:23.844Z,26.43
2018-05-26T04:57:51.560Z,24.80
2018-05-26T05:00:22.033Z,24.50
2018-05-26T05:02:49.616Z,23.50
2018-05-26T05:05:17.188Z,21.97
2018-05-26T05:07:44.730Z,20.40
2018-05-26T05:10:12.491Z,19.30
2018-05-26T05:12:40.294Z,19.13
2018-05-26T05:15:08.671Z,18.60
2018-05-26T05:17:36.726Z,18.30
2018-05-26T05:20:04.300Z,18.70
2018-05-26T05:22:31.875Z,18.90
2018-05-26T05:24:59.455Z,18.43
2018-05-26T05:27:34.840Z,17.40
2018-05-26T05:30:09.212Z,18.10
2018-05-26T05:32:41.246Z,17.83
2018-05-26T05:35:09.096Z,17.77
2018-05-26T05:37:36.843Z,18.33
2018-05-26T05:40:04.376Z,18.17
2018-05-26T05:42:31.904Z,17.60
2018-05-26T05:45:00.757Z,18.03
2018-05-26T05:47:29.276Z,18.97
2018-05-26T05:49:57.138Z,19.83
2018-05-26T05:52:28.279Z,19.80
2018-05-26T05:54:55.882Z,19.47
2018-05-26T05:57:23.433Z,19.60
2018-05-26T05:59:50.979Z,19.13
2018-05-26T06:02:20.583Z,19.60
2018-05-26T06:04:49.685Z,20.20
2018-05-26T06:07:18.159Z,20.83
2018-05-26T06:09:46.962Z,21.47
2018-05-26T06:12:14.634Z,21.33
2018-05-26T06:14:42.176Z,22.03
2018-05-26T06:17:09.735Z,21.83
2018-05-26T06:19:37.372Z,22.20
2018-05-26T06:22:05.875Z,21.97
2018-05-26T06:24:34.264Z,21.40
2018-05-26T06:27:01.972Z,22.53
2018-05-26T06:29:29.567Z,22.00
2018-05-26T06:31:57.102Z,21.03
2018-05-26T06:34:24.624Z,21.37
2018-05-26T06:36:53.235Z,21.23
2018-05-26T06:39:21.899Z,20.37
2018-05-26T06:41:51.168Z,20.73
2018-05-26T06:44:19.437Z,20.73
2018-05-26T06:46:46.989Z,21.43
2018-05-26T06:49:14.571Z,21.67
2018-05-26T06:51:42.067Z,23.93
2018-05-26T06:54:09.820Z,23.73
2018-05-26T06:56:41.185Z,26.17
2018-05-26T06:59:11.917Z,25.53
2018-05-26T07:01:40.649Z,26.43
2018-05-26T07:04:08.199Z,27.03
2018-05-26T07:06:35.718Z,27.10
2018-05-26T07:09:03.322Z,26.33
2018-05-26T07:11:30.956Z,26.57
2018-05-26T07:13:58.583Z,26.73
2018-05-26T07:16:26.265Z,26.40
2018-05-26T07:18:54.780Z,26.60
2018-05-26T07:21:22.356Z,26.17
2018-05-26T07:23:51.017Z,25.33
2018-05-26T07:29:11.820Z,24.20
2018-05-26T08:14:22.567Z,27.93
2018-05-26T08:16:50.126Z,26.63
2018-05-26T08:19:17.631Z,27.93
2018-05-26T08:21:56.834Z,26.27
2018-05-26T08:24:30.897Z,27.30
2018-05-26T08:27:10.681Z,25.53
2018-05-26T08:29:42.056Z,27.83
2018-05-26T08:32:09.599Z,28.70
2018-05-26T08:34:37.647Z,27.80
2018-05-26T08:37:05.162Z,27.43
2018-05-26T08:39:34.137Z,26.73
2018-05-26T08:42:02.625Z,27.77
2018-05-26T08:44:33.559Z,28.57
2018-05-26T08:47:01.176Z,28.17
2018-05-26T08:49:28.726Z,26.97
2018-05-26T08:51:56.287Z,27.47
2018-05-26T08:54:23.838Z,27.47
2018-05-26T08:56:54.088Z,27.20
2018-05-26T08:59:21.663Z,26.90
2018-05-26T09:01:49.325Z,28.10
2018-05-26T09:04:17.781Z,26.90
2018-05-26T09:06:45.327Z,26.60
2018-05-26T09:09:12.868Z,27.00
2018-05-26T09:11:41.438Z,26.63
2018-05-26T09:14:09.856Z,27.30
2018-05-26T09:17:32.580Z,26.30
2018-05-26T09:20:15.069Z,27.13
2018-05-26T09:22:42.624Z,26.20
2018-05-26T09:25:10.298Z,27.93
2018-05-26T09:27:37.728Z,26.03
2018-05-26T09:30:05.406Z,26.53
2018-05-26T09:32:33.109Z,26.90
2018-05-26T09:35:00.755Z,28.13
2018-05-26T09:40:01.881Z,26.63
2018-05-26T09:42:29.454Z,24.70
2018-05-26T09:44:57.032Z,25.33
2018-05-26T09:47:24.536Z,23.83
2018-05-26T09:49:52.236Z,25.20
2018-05-26T09:52:20.987Z,22.87
2018-05-26T09:54:49.914Z,23.33
2018-05-26T09:57:25.767Z,22.50
2018-05-26T09:59:53.359Z,21.00
2018-05-26T10:02:20.911Z,20.93
2018-05-26T10:04:48.617Z,21.00
2018-05-26T10:07:16.451Z,17.87
2018-05-26T10:09:45.629Z,17.50
2018-05-26T10:12:13.411Z,19.03
2018-05-26T10:14:41.007Z,19.80
2018-05-26T10:17:08.611Z,18.70
2018-05-26T10:19:36.156Z,22.17
2018-05-26T10:22:03.954Z,20.80
2018-05-26T10:24:32.895Z,22.67
2018-05-26T10:27:00.574Z,21.30
2018-05-26T10:29:28.281Z,22.10
2018-05-26T10:31:56.724Z,20.93
2018-05-26T10:34:24.381Z,20.30
2018-05-26T10:36:51.870Z,21.13
2018-05-26T10:39:19.358Z,21.40
2018-05-26T10:41:49.883Z,20.83
2018-05-26T10:44:17.528Z,20.80
2018-05-26T10:51:17.156Z,16.73
2018-05-26T10:53:49.053Z,16.63
2018-05-26T10:56:19.379Z,15.90
2018-05-26T11:01:22.877Z,16.87
2018-05-26T11:03:51.343Z,16.27
2018-05-26T11:06:18.868Z,17.80
2018-05-26T11:08:47.503Z,20.07
2018-05-26T11:11:15.795Z,20.10
2018-05-26T11:13:43.434Z,20.97
2018-05-26T11:16:13.427Z,20.07
2018-05-26T11:18:45.477Z,18.73
2018-05-26T11:21:13.109Z,18.97
2018-05-26T11:26:51.714Z,21.03
2018-05-26T11:29:26.331Z,21.20
2018-05-26T11:41:04.641Z,18.77
2018-05-26T11:43:34.542Z,19.77
2018-05-26T12:00:15.268Z,25.90
2018-05-26T12:02:44.091Z,27.10
2018-05-26T12:14:45.273Z,31.83
2018-05-26T12:17:18.910Z,32.93
2018-05-26T12:20:07.812Z,35.33
2018-05-26T13:23:54.322Z,39.10
2018-05-26T13:26:25.615Z,38.70
2018-05-26T13:28:59.302Z,39.20
2018-05-26T13:40:36.150Z,35.10
2018-05-26T13:45:42.830Z,33.97
2018-05-26T13:57:19.901Z,35.63
2018-05-26T13:59:48.292Z,36.23
2018-05-26T14:02:16.495Z,37.37
2018-05-26T14:14:11.193Z,37.30
2018-05-26T14:16:40.678Z,38.70
2018-05-26T14:19:09.768Z,37.77
2018-05-26T14:27:38.422Z,37.20
2018-05-26T14:30:09.048Z,39.73
2018-05-26T14:32:36.532Z,37.97
2018-05-26T14:35:04.055Z,38.57
2018-05-26T14:37:31.565Z,37.23
2018-05-26T14:39:59.391Z,37.40
2018-05-26T14:42:28.620Z,38.47
2018-05-26T14:44:56.379Z,37.73
2018-05-26T14:47:24.482Z,36.23
2018-05-26T14:49:52.092Z,37.97
2018-05-26T14:52:19.563Z,36.87
2018-05-26T14:54:47.072Z,37.77
2018-05-26T14:57:21.225Z,38.27
2018-05-26T14:59:50.422Z,38.70
2018-05-26T15:02:21.100Z,37.53
2018-05-26T15:04:49.608Z,38.10
2018-05-26T15:07:18.322Z,38.90
2018-05-26T15:09:45.805Z,39.17
2018-05-26T15:12:14.246Z,39.00
2018-05-26T15:14:42.603Z,40.40
2018-05-26T15:23:15.798Z,37.10
2018-05-26T15:25:46.858Z,37.70
2018-05-26T15:28:19.597Z,35.97
2018-05-26T15:30:51.487Z,36.57
2018-05-26T15:42:31.937Z,36.40
2018-05-26T15:45:01.184Z,35.37
2018-05-26T15:47:44.532Z,35.40
2018-05-26T15:58:57.073Z,34.63
2018-05-26T16:01:27.000Z,38.87
2018-05-26T16:03:56.236Z,39.00
2018-05-26T16:09:08.789Z,42.43
2018-05-26T16:11:37.597Z,41.57
2018-05-26T16:14:06.180Z,42.53
2018-05-26T16:16:35.756Z,42.00
2018-05-26T16:19:13.456Z,42.63
2018-05-26T16:21:41.151Z,43.73
2018-05-26T16:24:18.275Z,42.80
2018-05-26T16:26:46.897Z,44.63
2018-05-26T16:29:17.197Z,42.73
2018-05-26T16:31:48.429Z,44.17
2018-05-26T16:34:15.977Z,44.33
2018-05-26T16:36:43.712Z,45.37
2018-05-26T16:39:11.560Z,44.97
2018-05-26T16:41:41.622Z,44.07
2018-05-26T16:50:14.372Z,44.40
2018-05-26T16:52:42.096Z,46.47
2018-05-26T16:55:09.920Z,46.40
2018-05-26T17:07:05.273Z,45.77
2018-05-26T17:09:33.057Z,46.27
2018-05-26T17:12:00.635Z,46.07
2018-05-26T17:23:30.304Z,47.17
2018-05-26T17:25:57.963Z,46.97
2018-05-26T17:28:26.077Z,45.47
2018-05-26T17:30:57.171Z,46.77
2018-05-26T17:42:34.108Z,42.83
2018-05-26T17:45:01.815Z,40.53
2018-05-26T17:47:29.860Z,39.60
2018-05-26T17:58:28.105Z,32.33
2018-05-26T18:00:55.691Z,30.80
2018-05-26T18:03:24.096Z,29.13
2018-05-26T18:05:51.727Z,29.23
2018-05-26T18:16:49.649Z,24.50
2018-05-26T18:19:18.072Z,23.70
2018-05-26T18:21:46.376Z,23.20
2018-05-26T18:33:13.222Z,20.90
2018-05-26T18:35:40.807Z,21.03
2018-05-26T18:38:08.471Z,20.23
2018-05-26T18:49:42.287Z,18.77
2018-05-26T18:52:10.125Z,18.87
2018-05-26T18:54:38.476Z,18.20
2018-05-26T18:57:06.105Z,18.20
2018-05-26T19:08:44.172Z,17.07
2018-05-26T19:11:12.033Z,17.53
2018-05-26T19:25:49.463Z,17.00
2018-05-26T19:28:17.375Z,17.60
2018-05-26T19:30:45.204Z,16.90
2018-05-26T19:42:20.954Z,17.03
2018-05-26T19:44:48.611Z,16.90
2018-05-26T19:47:16.236Z,16.17
2018-05-26T19:49:45.886Z,17.77
2018-05-26T20:01:22.186Z,18.67
2018-05-26T20:03:49.826Z,19.17
2018-05-26T20:06:17.408Z,20.63
2018-05-26T20:17:53.920Z,20.53
2018-05-26T20:20:21.795Z,22.07
2018-05-26T20:23:11.423Z,21.10
2018-05-26T20:34:47.936Z,22.27
2018-05-26T20:37:15.580Z,22.20
2018-05-26T20:39:43.364Z,22.87
2018-05-26T20:51:19.190Z,22.97
2018-05-26T20:53:46.826Z,25.20
2018-05-26T20:56:14.391Z,26.73
2018-05-26T21:07:16.825Z,28.37
2018-05-26T21:09:44.390Z,28.00
2018-05-26T21:12:11.918Z,27.47
2018-05-26T21:14:39.463Z,30.30
2018-05-26T21:17:07.136Z,33.20
2018-05-26T21:19:34.836Z,31.80
2018-05-26T21:24:52.158Z,31.47
2018-05-26T21:27:20.031Z,32.47
2018-05-26T21:29:47.578Z,34.63
2018-05-26T21:32:15.464Z,33.33
2018-05-26T21:34:43.109Z,33.93
2018-05-26T21:37:13.481Z,33.43
2018-05-26T21:39:42.107Z,31.83
2018-05-26T21:42:10.052Z,33.50
2018-05-26T21:44:37.675Z,31.50
2018-05-26T21:47:05.267Z,31.40
2018-05-26T21:49:33.711Z,32.67
2018-05-26T21:52:06.455Z,32.63
2018-05-26T22:00:02.473Z,33.03
2018-05-26T22:02:31.080Z,33.00
2018-05-26T22:04:58.623Z,31.50
2018-05-26T22:07:26.363Z,30.27
2018-05-26T22:18:02.267Z,28.17
2018-05-26T22:20:29.865Z,26.77
2018-05-26T22:22:57.622Z,27.23
2018-05-26T22:25:32.634Z,25.53
2018-05-26T22:28:04.452Z,26.53
2018-05-26T22:36:04.685Z,24.97
2018-05-26T22:41:04.875Z,23.83
2018-05-26T22:43:41.594Z,24.93
2018-05-26T22:54:01.238Z,23.03
2018-05-26T22:56:28.872Z,22.50
2018-05-26T22:58:56.459Z,22.00
2018-05-26T23:01:28.819Z,21.60
2018-05-26T23:04:01.541Z,22.53
2018-05-26T23:06:34.231Z,22.60
2018-05-26T23:09:04.655Z,21.93
2018-05-26T23:11:32.223Z,21.20
2018-05-26T23:13:59.788Z,21.17
2018-05-26T23:16:27.581Z,21.90
2018-05-26T23:18:57.427Z,22.07
2018-05-26T23:21:26.141Z,22.10
2018-05-26T23:24:04.836Z,20.40
2018-05-26T23:29:07.991Z,21.77
2018-05-26T23:31:35.444Z,22.00
2018-05-26T23:34:02.988Z,22.03
2018-05-26T23:36:32.458Z,21.93
2018-05-26T23:39:04.897Z,21.63
2018-05-26T23:41:37.446Z,22.43
2018-05-26T23:44:06.648Z,23.57
2018-05-26T23:46:37.412Z,25.20
2018-05-26T23:49:04.995Z,25.23
2018-05-26T23:51:32.551Z,26.13
2018-05-26T23:54:02.612Z,25.83
2018-05-26T23:56:30.271Z,26.43
2018-05-26T23:58:58.044Z,25.60
